Time;durP1;ratioP1;P1;durP2;ratioP2;P2;SDS_P1;SDS_P2;PMS_P1;PMS_P2;Temp;Humidity;BMP_temperature;BMP_pressure;BME280_temperature;BME280_humidity;BME280_pressure;Samples;Min_cycle;Max_cycle;Signal;HPM_P1;HPM_P2
2023/08/16 00:00:08;;;;;;;10.07;9.17;;;21.70;98.20;;;21.64;90.97;98133.00;4949773;28;20932;-72
2023/08/16 00:02:35;;;;;;;11.97;9.43;;;21.60;99.10;;;21.64;91.70;98152.25;4934328;29;20550;-70
2023/08/16 00:05:03;;;;;;;10.37;9.47;;;21.50;99.60;;;21.60;91.85;98151.19;4949679;28;20560;-71
2023/08/16 00:07:32;;;;;;;11.80;10.90;;;21.40;99.90;;;21.45;93.56;98143.84;4934924;29;20943;-72
2023/08/16 00:09:59;;;;;;;10.90;10.10;;;21.40;99.90;;;21.45;93.71;98145.78;4934925;29;21060;-71
2023/08/16 00:12:26;;;;;;;11.23;10.03;;;21.30;99.90;;;21.43;93.72;98139.75;4949633;28;20459;-72
2023/08/16 00:14:55;;;;;;;11.67;10.40;;;21.20;99.90;;;21.34;94.84;98140.34;4968594;28;20474;-70
2023/08/16 00:17:22;;;;;;;10.90;10.00;;;21.20;99.90;;;21.33;94.68;98146.13;4937719;28;20534;-70
2023/08/16 00:19:49;;;;;;;10.63;9.73;;;21.10;99.90;;;21.23;95.19;98145.06;4934249;29;20451;-70
2023/08/16 00:22:17;;;;;;;12.13;10.93;;;21.10;99.90;;;21.25;95.28;98142.06;4934115;29;20459;-70
2023/08/16 00:24:44;;;;;;;11.23;10.23;;;21.00;99.90;;;21.23;95.51;98136.03;4934701;29;20528;-72
2023/08/16 00:27:11;;;;;;;11.73;10.73;;;21.00;99.90;;;21.21;95.86;98133.53;4934704;29;21027;-70
2023/08/16 00:29:38;;;;;;;11.77;10.80;;;20.90;99.90;;;21.22;95.80;98137.09;4938963;29;20469;-71
2023/08/16 00:32:10;;;;;;;12.10;11.00;;;20.90;99.90;;;21.15;96.22;98134.66;4955189;28;20494;-69
2023/08/16 00:34:38;;;;;;;12.60;11.33;;;20.90;99.90;;;21.06;96.55;98128.13;4964881;28;20503;-70
2023/08/16 00:37:05;;;;;;;15.40;12.33;;;20.80;99.90;;;21.10;96.70;98148.44;4951137;28;20880;-71
2023/08/16 00:39:32;;;;;;;12.67;11.47;;;20.90;99.90;;;21.09;96.57;98141.28;4936094;28;20462;-72
2023/08/16 00:42:00;;;;;;;12.87;11.30;;;20.80;99.90;;;20.87;96.78;98105.97;4942251;29;20467;-70
2023/08/16 00:44:27;;;;;;;11.87;10.77;;;20.80;99.90;;;21.03;97.43;98137.75;4946957;29;20448;-70
2023/08/16 00:46:54;;;;;;;12.90;11.60;;;20.80;99.90;;;21.01;97.73;98131.72;4949058;28;20503;-72
2023/08/16 00:49:23;;;;;;;12.13;10.93;;;20.80;99.90;;;20.94;98.24;98129.28;4944308;29;20457;-70
2023/08/16 00:51:50;;;;;;;12.67;11.57;;;20.70;99.90;;;21.01;97.45;98139.94;4942443;29;20487;-72
2023/08/16 00:54:18;;;;;;;11.80;10.57;;;20.80;99.90;;;20.94;97.79;98136.69;4959204;28;21016;-70
2023/08/16 00:56:45;;;;;;;12.30;11.10;;;20.70;99.90;;;20.86;98.49;98127.13;4951860;29;20508;-71
2023/08/16 00:59:14;;;;;;;11.50;10.50;;;20.70;99.90;;;20.83;98.81;98127.66;4943748;28;20453;-72
2023/08/16 01:01:42;;;;;;;11.87;10.97;;;20.60;99.90;;;20.81;99.01;98118.88;4951890;28;20453;-70
2023/08/16 01:04:10;;;;;;;13.67;12.33;;;20.60;99.90;;;20.77;100.00;98115.03;4949427;29;20967;-69
2023/08/16 01:06:39;;;;;;;12.77;11.67;;;20.60;99.90;;;20.83;100.00;98111.19;4917376;29;20475;-71
2023/08/16 01:09:06;;;;;;;13.10;11.80;;;20.60;99.90;;;20.95;99.08;98119.94;4933858;29;20514;-69
2023/08/16 01:11:42;;;;;;;13.07;11.87;;;20.70;99.90;;;20.92;100.00;98108.69;4933322;29;20551;-69
2023/08/16 01:14:15;;;;;;;12.63;11.47;;;20.80;99.90;;;20.93;99.28;98108.41;4934107;29;20474;-70
2023/08/16 01:16:46;;;;;;;12.50;11.43;;;20.80;99.90;;;20.81;99.71;98107.91;4936953;29;21017;-70
2023/08/16 01:19:30;;;;;;;14.23;13.00;;;20.70;99.90;;;20.59;100.00;98111.81;4951298;28;20903;-71
2023/08/16 01:22:16;;;;;;;15.30;13.70;;;20.60;99.90;;;20.59;100.00;98117.28;4939564;28;20500;-70
2023/08/16 01:25:00;;;;;;;13.63;12.53;;;20.50;99.90;;;20.57;100.00;98108.53;4935392;29;20462;-71
2023/08/16 01:27:29;;;;;;;14.47;13.00;;;20.40;99.90;;;20.51;100.00;98110.47;4942518;29;20935;-71
2023/08/16 01:29:56;;;;;;;14.43;13.23;;;20.40;99.90;;;20.54;100.00;98120.03;4963832;28;20525;-71
2023/08/16 01:32:24;;;;;;;14.77;13.47;;;20.30;99.90;;;20.63;100.00;98115.63;4945023;28;20461;-71
2023/08/16 01:34:51;;;;;;;14.93;13.63;;;20.40;99.90;;;20.64;100.00;98117.25;4948518;29;21190;-69
2023/08/16 01:37:18;;;;;;;14.87;13.43;;;20.40;99.90;;;20.61;100.00;98120.56;4955352;28;20458;-70
2023/08/16 01:39:49;;;;;;;15.77;14.37;;;20.50;99.90;;;20.49;100.00;98128.28;4932237;29;20459;-69
2023/08/16 01:42:17;;;;;;;15.20;13.80;;;20.40;99.90;;;20.47;100.00;98131.31;4932643;29;20468;-69
2023/08/16 01:44:47;;;;;;;17.73;14.17;;;20.40;99.90;;;20.30;100.00;98117.91;4944441;28;21073;-70
2023/08/16 01:47:15;;;;;;;14.93;13.53;;;20.30;99.90;;;20.35;100.00;98134.34;4950035;29;20872;-70
2023/08/16 01:49:43;;;;;;;14.80;13.40;;;20.20;99.90;;;20.44;100.00;98131.06;4943710;28;20469;-70
2023/08/16 01:52:11;;;;;;;14.73;13.40;;;20.30;99.90;;;20.29;100.00;98123.66;4947409;28;20504;-69
2023/08/16 01:54:38;;;;;;;16.27;14.77;;;20.20;99.90;;;20.16;100.00;98131.34;4949986;28;20567;-70
2023/08/16 01:57:05;;;;;;;15.87;14.43;;;20.10;99.90;;;20.06;100.00;98132.19;4946807;29;20478;-70
2023/08/16 01:59:33;;;;;;;16.13;14.33;;;20.00;99.90;;;20.10;100.00;98138.78;4947730;29;20466;-71
2023/08/16 02:02:02;;;;;;;16.57;15.07;;;20.00;99.90;;;20.24;100.00;98132.72;4931774;29;20467;-69
2023/08/16 02:04:29;;;;;;;16.13;14.63;;;20.10;99.90;;;20.16;100.00;98130.53;4933098;29;20813;-69
2023/08/16 02:06:56;;;;;;;14.80;13.50;;;20.00;99.90;;;20.22;100.00;98130.25;4940836;29;20493;-70
2023/08/16 02:09:23;;;;;;;14.30;12.90;;;20.00;99.90;;;20.22;100.00;98140.41;4952034;28;20505;-70
2023/08/16 02:11:51;;;;;;;16.53;14.93;;;20.00;99.90;;;20.07;100.00;98135.75;4947394;28;20461;-69
2023/08/16 02:14:18;;;;;;;16.30;14.70;;;19.90;99.90;;;19.96;100.00;98143.16;4941034;29;20700;-70
2023/08/16 02:16:45;;;;;;;17.50;15.90;;;19.80;99.90;;;19.94;100.00;98139.84;4940632;29;20821;-69
2023/08/16 02:19:13;;;;;;;17.53;15.93;;;19.80;99.90;;;19.89;100.00;98142.56;4933320;29;20953;-71
2023/08/16 02:21:40;;;;;;;17.10;15.50;;;19.80;99.90;;;19.85;100.00;98138.75;4940898;29;21761;-71
2023/08/16 02:24:10;;;;;;;17.07;15.50;;;19.80;99.90;;;19.97;100.00;98142.06;4948284;28;20523;-69
2023/08/16 02:26:37;;;;;;;16.77;15.30;;;19.80;99.90;;;19.97;100.00;98144.81;4937147;29;20468;-69
2023/08/16 02:29:04;;;;;;;18.40;16.60;;;19.90;99.90;;;19.82;100.00;98137.38;4956452;28;20553;-69
2023/08/16 02:31:31;;;;;;;19.00;17.27;;;19.90;99.90;;;19.78;100.00;98136.28;4949504;29;20449;-69
2023/08/16 02:33:58;;;;;;;17.83;16.03;;;19.80;99.90;;;19.72;100.00;98138.19;4950517;29;20860;-71
2023/08/16 02:36:28;;;;;;;16.87;15.43;;;19.80;99.90;;;19.66;100.00;98134.59;4948572;29;20478;-72
2023/08/16 02:38:55;;;;;;;17.43;15.93;;;19.70;99.90;;;19.65;100.00;98143.13;4942819;29;20482;-70
2023/08/16 02:41:22;;;;;;;18.87;17.37;;;19.70;99.90;;;19.64;100.00;98139.53;4946306;29;20877;-71
2023/08/16 02:43:50;;;;;;;19.07;16.83;;;19.70;99.90;;;19.71;100.00;98136.53;4953517;28;20492;-69
2023/08/16 02:46:17;;;;;;;18.43;16.73;;;19.70;99.90;;;19.65;100.00;98134.91;4956543;28;20593;-70
2023/08/16 02:48:44;;;;;;;18.50;16.80;;;19.60;99.90;;;19.72;100.00;98126.41;4943710;28;20594;-69
2023/08/16 02:51:11;;;;;;;18.03;16.33;;;19.70;99.90;;;19.71;100.00;98120.09;4950590;28;20451;-71
2023/08/16 02:53:39;;;;;;;17.80;16.10;;;19.60;99.90;;;19.71;100.00;98117.34;4943080;29;20880;-68
2023/08/16 02:56:07;;;;;;;18.70;16.97;;;19.60;99.90;;;19.67;100.00;98113.53;4936182;29;20475;-72
2023/08/16 02:58:34;;;;;;;18.10;16.30;;;19.60;99.90;;;19.62;100.00;98122.56;4950825;28;20465;-71
2023/08/16 03:01:01;;;;;;;19.10;16.83;;;19.60;99.90;;;19.62;100.00;98127.19;4940590;28;20453;-72
2023/08/16 03:03:28;;;;;;;18.17;16.37;;;19.50;99.90;;;19.49;100.00;98126.66;4946023;28;20468;-70
2023/08/16 03:05:55;;;;;;;18.77;17.07;;;19.40;99.90;;;19.58;100.00;98126.09;4934869;29;20872;-70
2023/08/16 03:08:22;;;;;;;19.43;17.73;;;19.40;99.90;;;19.44;100.00;98132.09;4935257;29;20458;-69
2023/08/16 03:10:51;;;;;;;21.17;19.37;;;19.30;99.90;;;19.34;100.00;98132.91;4936097;29;20494;-74
2023/08/16 03:13:18;;;;;;;19.50;17.50;;;19.30;99.90;;;19.32;100.00;98126.06;4950498;28;20467;-69
2023/08/16 03:15:45;;;;;;;18.50;16.87;;;19.20;99.90;;;19.48;100.00;98126.91;4943792;29;20567;-70
2023/08/16 03:18:13;;;;;;;19.37;17.37;;;19.30;99.90;;;19.45;100.00;98127.47;4959672;28;20575;-71
2023/08/16 03:20:40;;;;;;;19.37;17.67;;;19.30;99.90;;;19.39;100.00;98134.84;4946616;28;20974;-70
2023/08/16 03:23:08;;;;;;;19.50;17.53;;;19.30;99.90;;;19.40;100.00;98136.50;4940516;28;20940;-70
2023/08/16 03:25:35;;;;;;;19.27;17.57;;;19.20;99.90;;;19.30;100.00;98136.47;4945842;29;20509;-71
2023/08/16 03:28:04;;;;;;;18.63;16.83;;;19.20;99.90;;;19.00;100.00;98072.31;4950514;28;20471;-69
2023/08/16 03:30:31;;;;;;;18.53;16.93;;;19.20;99.90;;;19.39;100.00;98134.84;4945235;28;20451;-70
2023/08/16 03:32:58;;;;;;;19.47;17.73;;;19.20;99.90;;;19.37;100.00;98134.31;4951294;29;20480;-69
2023/08/16 03:35:25;;;;;;;19.20;17.37;;;19.20;99.90;;;19.29;100.00;98123.84;4954607;29;20485;-70
2023/08/16 03:37:53;;;;;;;19.30;17.40;;;19.20;99.90;;;19.32;100.00;98137.00;4953768;28;20986;-70
2023/08/16 03:40:20;;;;;;;19.87;17.87;;;19.10;99.90;;;19.29;100.00;98132.91;4935091;29;20507;-71
2023/08/16 03:42:47;;;;;;;19.50;17.80;;;19.20;99.90;;;19.20;100.00;98127.13;4938069;29;20465;-68
2023/08/16 03:45:16;;;;;;;19.90;18.07;;;19.10;99.90;;;19.17;100.00;98138.59;4945359;29;20894;-70
2023/08/16 03:47:44;;;;;;;19.97;18.07;;;19.00;99.90;;;19.10;100.00;98132.56;4950241;29;20481;-69
2023/08/16 03:50:11;;;;;;;20.50;18.70;;;18.90;99.90;;;19.08;100.00;98134.75;4958827;28;20473;-70
2023/08/16 03:52:39;;;;;;;20.47;18.50;;;18.90;99.90;;;19.03;100.00;98131.97;4959183;28;20987;-72
2023/08/16 03:55:07;;;;;;;19.30;17.37;;;18.80;99.90;;;19.06;100.00;98142.41;4944037;29;20470;-71
2023/08/16 03:57:34;;;;;;;21.77;19.57;;;18.80;99.90;;;18.97;100.00;98140.16;4952779;29;20963;-73
2023/08/16 04:00:02;;;;;;;20.93;19.03;;;18.90;99.90;;;18.97;100.00;98156.59;4941124;28;20459;-69
2023/08/16 04:02:31;;;;;;;20.23;18.43;;;18.80;99.90;;;18.91;100.00;98157.66;4934223;29;20897;-70
2023/08/16 04:05:10;;;;;;;20.90;18.90;;;18.80;99.90;;;18.64;100.00;98098.41;4935040;29;20455;-69
2023/08/16 04:07:37;;;;;;;19.40;17.60;;;18.90;99.90;;;19.02;100.00;98160.47;4943055;29;21007;-70
2023/08/16 04:10:06;;;;;;;22.13;19.93;;;18.90;99.90;;;19.08;100.00;98152.00;4948514;28;20457;-69
2023/08/16 04:12:34;;;;;;;21.13;19.23;;;19.00;99.90;;;19.23;100.00;98148.50;4944580;28;20551;-69
2023/08/16 04:15:01;;;;;;;21.20;19.30;;;19.10;99.90;;;19.17;100.00;98148.75;4937600;29;20463;-68
2023/08/16 04:17:28;;;;;;;22.00;19.30;;;19.10;99.90;;;19.01;100.00;98156.06;4957250;28;20880;-71
2023/08/16 04:19:56;;;;;;;20.60;18.67;;;18.90;99.90;;;18.97;100.00;98170.28;4956435;28;20447;-70
2023/08/16 04:22:24;;;;;;;19.57;17.80;;;18.80;99.90;;;19.01;100.00;98172.50;4934071;29;20489;-68
2023/08/16 04:24:51;;;;;;;21.00;19.20;;;18.90;99.90;;;19.15;100.00;98173.66;4959246;28;20464;-70
2023/08/16 04:27:18;;;;;;;21.23;19.37;;;19.00;99.90;;;19.25;100.00;98179.19;4940147;29;20492;-69
2023/08/16 04:29:45;;;;;;;20.40;18.50;;;19.10;99.90;;;19.24;100.00;98188.50;4950237;28;20546;-70
2023/08/16 04:32:12;;;;;;;22.47;20.13;;;19.20;99.90;;;19.27;100.00;98187.13;4959315;28;20532;-70
2023/08/16 04:34:39;;;;;;;21.03;18.90;;;19.20;99.90;;;19.49;100.00;98181.44;4957751;28;20453;-69
2023/08/16 04:37:08;;;;;;;21.07;19.17;;;19.40;99.90;;;19.81;100.00;98191.38;4962412;28;20848;-71
2023/08/16 04:39:35;;;;;;;19.77;18.07;;;19.60;99.90;;;19.97;100.00;98194.16;4951794;29;20465;-70
2023/08/16 04:42:03;;;;;;;19.30;17.40;;;19.80;99.90;;;20.06;100.00;98187.03;4933822;29;20460;-69
2023/08/16 04:44:30;;;;;;;20.70;18.90;;;20.00;99.90;;;20.18;100.00;98195.00;4939262;29;20461;-69
2023/08/16 04:46:57;;;;;;;20.30;18.50;;;20.20;99.90;;;20.39;100.00;98198.53;4947290;29;20851;-71
2023/08/16 04:49:26;;;;;;;17.33;15.70;;;20.30;99.90;;;20.53;100.00;98206.19;4948757;29;20886;-69
2023/08/16 04:51:54;;;;;;;18.03;16.43;;;20.40;99.90;;;20.43;100.00;98201.56;4945187;29;20941;-70
2023/08/16 04:54:22;;;;;;;16.67;15.17;;;20.50;99.90;;;20.32;100.00;98213.63;4953231;28;21032;-69
2023/08/16 04:56:50;;;;;;;18.37;16.67;;;20.40;99.90;;;20.36;99.88;98201.84;4933881;29;20547;-70
2023/08/16 04:59:17;;;;;;;16.70;15.20;;;20.40;99.90;;;20.50;99.49;98196.63;4947943;29;20449;-68
2023/08/16 05:01:45;;;;;;;18.03;16.47;;;20.60;99.90;;;20.65;97.27;98190.28;4950645;29;20570;-68
2023/08/16 05:04:12;;;;;;;17.50;15.80;;;20.70;99.90;;;20.66;96.43;98193.84;4937198;29;20476;-70
2023/08/16 05:06:40;;;;;;;17.00;15.40;;;20.70;99.90;;;20.81;97.19;98201.25;4939296;29;20856;-70
2023/08/16 05:09:07;;;;;;;18.20;16.30;;;20.80;99.90;;;21.09;94.29;98201.72;4948501;28;20448;-69
2023/08/16 05:11:36;;;;;;;16.87;15.33;;;21.10;99.90;;;21.23;93.11;98202.75;4950947;29;20496;-70
2023/08/16 05:14:03;;;;;;;17.10;15.43;;;21.20;99.50;;;21.32;91.63;98211.25;4939444;29;20457;-69
2023/08/16 05:16:30;;;;;;;17.83;16.17;;;21.40;98.50;;;21.47;90.56;98198.53;4935791;29;20506;-70
2023/08/16 05:18:58;;;;;;;17.63;16.13;;;21.70;97.50;;;21.79;89.15;98214.59;4942605;28;20446;-69
2023/08/16 05:21:25;;;;;;;18.00;16.30;;;22.20;96.00;;;22.15;86.64;98220.94;4942065;29;20481;-69
2023/08/16 05:23:53;;;;;;;18.37;16.50;;;22.50;95.00;;;22.27;86.12;98224.16;4951414;28;20461;-70
2023/08/16 05:26:21;;;;;;;17.03;15.53;;;22.90;94.20;;;22.99;82.73;98219.13;4945055;28;20518;-71
2023/08/16 05:28:49;;;;;;;20.90;15.30;;;23.70;93.20;;;23.79;78.47;98226.97;4955763;28;20504;-69
2023/08/16 05:31:16;;;;;;;16.40;14.90;;;24.30;92.40;;;24.54;74.36;98228.03;4937107;28;20502;-71
2023/08/16 05:33:43;;;;;;;14.50;13.30;;;25.10;91.40;;;24.95;71.54;98229.25;4944395;29;20923;-70
2023/08/16 05:36:10;;;;;;;16.07;14.43;;;25.50;90.70;;;25.41;69.56;98224.75;4950704;29;20513;-70
2023/08/16 05:38:38;;;;;;;18.40;14.30;;;25.80;90.40;;;25.19;70.09;98214.41;4959276;28;20477;-68
2023/08/16 05:41:05;;;;;;;16.37;14.77;;;25.90;90.00;;;25.39;69.68;98231.69;4938960;29;20544;-70
2023/08/16 05:43:33;;;;;;;15.50;14.10;;;25.80;89.90;;;25.23;68.92;98206.31;4943336;29;21006;-71
2023/08/16 05:46:02;;;;;;;15.63;14.23;;;26.00;89.60;;;25.71;68.10;98228.00;4945089;29;20449;-70
2023/08/16 05:48:29;;;;;;;15.80;14.40;;;26.10;88.90;;;26.01;66.94;98231.22;4943751;28;20452;-68
2023/08/16 05:50:57;;;;;;;14.90;13.53;;;26.40;88.50;;;26.26;65.46;98242.81;4956116;28;20523;-70
2023/08/16 05:53:24;;;;;;;14.90;13.40;;;26.70;87.60;;;26.29;65.60;98236.63;4932713;29;20458;-68
2023/08/16 05:55:50;;;;;;;15.17;13.80;;;26.80;87.30;;;26.15;66.65;98244.97;4953442;28;20538;-71
2023/08/16 05:58:18;;;;;;;17.80;15.67;;;27.00;86.80;;;25.68;67.43;98252.69;4933776;29;20473;-68
2023/08/16 06:00:47;;;;;;;15.83;14.33;;;27.00;86.20;;;24.69;71.39;98260.06;4947697;28;20451;-68
2023/08/16 06:03:16;;;;;;;15.17;13.77;;;25.80;87.80;;;24.55;72.15;98254.50;4932944;29;20482;-69
2023/08/16 06:05:43;;;;;;;17.03;15.50;;;25.20;89.80;;;23.87;75.00;98259.38;4947939;28;20883;-69
2023/08/16 06:08:10;;;;;;;17.93;16.37;;;24.20;90.50;;;22.93;79.57;98259.66;4947343;29;20526;-71
2023/08/16 06:10:37;;;;;;;18.63;16.73;;;23.30;91.40;;;22.61;82.11;98261.88;4950303;29;20450;-68
2023/08/16 06:13:04;;;;;;;18.77;17.07;;;22.80;92.60;;;22.56;83.24;98258.34;4950546;29;20869;-69
2023/08/16 06:15:31;;;;;;;18.83;17.20;;;22.60;93.50;;;22.48;84.44;98265.31;4949512;29;20446;-69
2023/08/16 06:17:59;;;;;;;20.70;18.80;;;22.50;94.10;;;22.58;84.24;98254.22;4960064;28;21052;-70
2023/08/16 06:20:27;;;;;;;19.23;17.53;;;22.50;94.40;;;22.67;84.30;98267.34;4940880;28;20466;-68
2023/08/16 06:22:55;;;;;;;17.93;16.30;;;22.60;94.60;;;22.67;84.08;98275.59;4936419;29;20488;-69
2023/08/16 06:25:22;;;;;;;20.83;18.83;;;22.60;94.50;;;22.44;85.19;98269.72;4942543;29;20469;-68
2023/08/16 06:27:49;;;;;;;19.17;17.27;;;22.50;94.60;;;22.46;86.25;98276.59;4936655;29;20454;-69
2023/08/16 06:30:16;;;;;;;19.70;18.00;;;22.50;95.30;;;22.49;85.59;98272.44;4940766;28;20858;-69
2023/08/16 06:32:43;;;;;;;19.63;17.83;;;22.50;95.10;;;22.63;84.58;98270.66;4935788;29;20466;-69
2023/08/16 06:35:11;;;;;;;19.97;18.00;;;22.60;94.80;;;22.66;84.37;98268.44;4936591;29;20461;-70
2023/08/16 06:37:40;;;;;;;20.03;18.23;;;22.70;94.50;;;22.39;84.79;98270.56;4952178;29;20492;-71
2023/08/16 06:40:09;;;;;;;21.07;18.93;;;22.60;94.20;;;22.35;85.77;98275.81;4954044;28;20957;-68
2023/08/16 06:42:36;;;;;;;20.33;18.60;;;22.30;95.10;;;22.67;83.86;98270.09;4949641;29;20449;-69
2023/08/16 06:45:04;;;;;;;23.03;20.73;;;22.60;94.60;;;22.66;84.52;98263.78;4948933;29;20544;-70
2023/08/16 06:47:32;;;;;;;20.10;18.37;;;22.70;94.50;;;22.88;83.47;98259.69;4949215;29;20533;-69
2023/08/16 06:49:59;;;;;;;20.50;18.60;;;22.90;94.30;;;22.85;83.21;98258.38;4940030;29;20461;-70
2023/08/16 06:52:26;;;;;;;20.63;18.63;;;22.90;94.20;;;22.97;82.48;98257.13;4935569;29;20473;-70
2023/08/16 06:54:55;;;;;;;19.43;17.63;;;22.90;94.00;;;23.17;81.58;98250.59;4935191;29;20462;-70
2023/08/16 06:57:22;;;;;;;19.30;17.60;;;23.20;93.90;;;23.29;80.76;98252.97;4935971;29;20482;-71
2023/08/16 06:59:50;;;;;;;19.30;17.70;;;23.30;93.60;;;23.51;79.48;98248.84;4943610;29;20453;-70
2023/08/16 07:02:17;;;;;;;18.73;17.00;;;23.40;93.30;;;23.68;78.60;98254.69;4965059;28;20469;-70
2023/08/16 07:04:45;;;;;;;17.53;16.03;;;23.60;93.10;;;23.63;79.59;98252.81;4939124;28;20457;-70
2023/08/16 07:07:12;;;;;;;18.17;16.63;;;23.60;93.20;;;23.67;79.45;98255.00;4948624;29;20465;-69
2023/08/16 07:09:39;;;;;;;17.60;16.00;;;23.70;93.20;;;23.55;79.41;98249.88;4934719;29;20470;-70
2023/08/16 07:12:09;;;;;;;14.00;12.80;;;23.70;92.90;;;23.75;77.99;98255.16;4935384;29;20465;-69
2023/08/16 07:14:36;;;;;;;11.40;10.40;;;23.70;92.70;;;23.98;74.67;98249.84;4934452;29;20874;-70
2023/08/16 07:17:05;;;;;;;10.47;9.57;;;23.90;92.10;;;23.96;73.31;98249.31;4947438;29;20510;-69
2023/08/16 07:19:32;;;;;;;10.47;9.57;;;24.00;91.50;;;23.62;74.84;98247.59;4936716;29;20451;-69
2023/08/16 07:21:59;;;;;;;10.47;9.57;;;23.80;91.40;;;23.75;74.13;98249.63;4946894;29;20450;-70
2023/08/16 07:24:26;;;;;;;10.23;9.33;;;23.80;91.30;;;23.91;73.17;98252.16;4954439;28;20491;-70
2023/08/16 07:26:53;;;;;;;9.60;8.67;;;23.90;91.20;;;24.11;73.04;98255.78;4958305;28;20510;-69
2023/08/16 07:29:22;;;;;;;11.70;9.10;;;24.00;91.30;;;24.16;72.60;98247.41;4951090;28;20898;-69
2023/08/16 07:31:51;;;;;;;9.87;8.93;;;24.20;91.00;;;24.22;72.31;98240.69;4939088;29;20466;-70
2023/08/16 07:34:18;;;;;;;8.80;8.10;;;24.10;91.00;;;23.93;73.18;98249.94;4949265;29;20462;-70
2023/08/16 07:36:45;;;;;;;9.70;8.80;;;24.10;91.00;;;23.95;73.07;98244.09;4943158;28;20533;-70
2023/08/16 07:39:12;;;;;;;10.23;9.43;;;24.10;90.90;;;24.07;73.31;98251.97;4935448;29;20448;-68
2023/08/16 07:41:40;;;;;;;9.30;8.60;;;24.10;91.20;;;24.17;72.94;98254.56;4934350;29;20463;-69
2023/08/16 07:44:08;;;;;;;12.33;9.27;;;24.10;91.10;;;24.48;71.69;98249.38;4938400;29;20459;-69
2023/08/16 07:46:37;;;;;;;10.47;9.47;;;24.30;90.90;;;24.49;71.83;98252.94;4945247;29;20480;-69
2023/08/16 07:49:05;;;;;;;9.20;8.50;;;24.40;90.90;;;24.76;70.96;98248.66;4934085;29;20482;-69
2023/08/16 07:51:32;;;;;;;9.60;8.70;;;24.50;90.90;;;24.89;70.23;98245.09;4952011;28;20479;-68
2023/08/16 07:54:00;;;;;;;9.50;8.70;;;24.60;90.70;;;25.18;69.05;98244.00;4936934;29;20469;-68
2023/08/16 07:56:27;;;;;;;9.30;8.50;;;24.90;90.60;;;24.96;69.22;98249.41;4956485;28;20510;-68
2023/08/16 07:58:54;;;;;;;8.07;7.40;;;24.90;90.40;;;25.07;69.65;98242.53;4942967;29;20462;-69
2023/08/16 08:01:21;;;;;;;9.17;8.37;;;25.00;90.40;;;25.17;69.09;98236.81;4953337;28;21031;-70
2023/08/16 08:03:49;;;;;;;8.80;8.10;;;25.10;90.40;;;25.32;68.60;98244.00;4952678;29;20940;-69
2023/08/16 08:06:18;;;;;;;8.57;7.87;;;25.20;90.30;;;25.41;68.42;98244.09;4949677;28;21022;-69
2023/08/16 08:08:45;;;;;;;8.30;7.60;;;25.30;90.10;;;25.55;67.19;98241.34;4953070;29;20578;-69
2023/08/16 08:11:12;;;;;;;7.93;7.13;;;25.40;89.70;;;25.39;66.74;98229.75;4938720;28;21011;-69
2023/08/16 08:13:39;;;;;;;8.90;8.10;;;25.40;89.40;;;25.19;67.21;98253.13;4933199;29;20849;-70
2023/08/16 08:16:07;;;;;;;7.30;6.70;;;25.30;89.10;;;25.43;66.06;98246.53;4936476;29;20950;-69
2023/08/16 08:18:35;;;;;;;7.97;7.27;;;25.40;88.80;;;25.61;64.77;98244.81;4941363;29;20458;-70
2023/08/16 08:21:04;;;;;;;7.30;6.40;;;25.40;88.20;;;25.68;64.21;98239.66;4957284;28;20456;-71
2023/08/16 08:23:31;;;;;;;6.90;6.30;;;25.60;87.80;;;25.71;63.26;98252.91;4945896;28;20455;-70
2023/08/16 08:25:59;;;;;;;7.17;6.50;;;25.60;86.80;;;26.05;61.76;98247.97;4939528;29;20447;-72
2023/08/16 08:28:26;;;;;;;6.83;6.33;;;25.80;86.40;;;26.30;61.33;98254.09;4937522;28;20502;-70
2023/08/16 08:30:54;;;;;;;7.40;6.80;;;26.00;86.10;;;26.03;62.56;98247.47;4948045;28;20804;-69
2023/08/16 08:33:21;;;;;;;7.10;6.50;;;26.00;86.20;;;26.35;60.70;98250.38;4934468;29;20460;-69
2023/08/16 08:35:50;;;;;;;7.07;6.37;;;26.10;85.40;;;26.07;61.09;98250.44;4945087;29;20450;-71
2023/08/16 08:38:18;;;;;;;6.73;6.10;;;26.00;85.10;;;26.17;60.10;98244.69;4951418;29;20486;-69
2023/08/16 08:40:46;;;;;;;6.57;6.07;;;26.10;84.40;;;26.29;60.58;98249.69;4940950;29;20509;-69
2023/08/16 08:43:17;;;;;;;6.23;5.80;;;26.10;84.80;;;26.24;58.61;98184.16;4947190;29;20464;-69
2023/08/16 08:45:46;;;;;;;6.13;5.63;;;26.30;84.00;;;26.93;58.22;98250.59;4937423;29;20512;-69
2023/08/16 08:48:14;;;;;;;5.50;5.10;;;26.60;83.60;;;26.98;57.42;98242.13;4947198;28;20800;-71
2023/08/16 08:50:44;;;;;;;5.43;5.13;;;26.80;82.70;;;26.52;58.07;98250.50;4943862;29;20464;-70
2023/08/16 08:53:11;;;;;;;6.60;5.23;;;26.60;81.80;;;26.51;57.43;98243.31;4950031;29;20522;-70
2023/08/16 08:55:45;;;;;;;5.00;4.60;;;26.60;81.40;;;26.70;56.30;98245.88;4937313;29;20472;-69
2023/08/16 08:58:14;;;;;;;6.20;5.60;;;26.50;80.70;;;27.08;55.39;98243.81;4952907;28;20516;-69
2023/08/16 09:00:42;;;;;;;6.10;5.50;;;26.80;80.40;;;27.03;55.43;98242.00;4951507;29;20448;-70
2023/08/16 09:03:12;;;;;;;6.07;5.57;;;26.80;80.00;;;27.24;54.83;98246.97;4938866;28;20464;-69
2023/08/16 09:05:41;;;;;;;6.27;5.80;;;27.10;79.50;;;27.48;54.69;98245.72;4942031;29;20462;-71
2023/08/16 09:08:09;;;;;;;5.50;5.10;;;27.20;79.50;;;27.87;53.33;98241.28;4948609;28;20461;-70
2023/08/16 09:10:39;;;;;;;6.40;5.90;;;27.40;78.70;;;27.88;52.58;98237.34;4949836;28;20461;-70
2023/08/16 09:13:08;;;;;;;5.03;4.63;;;27.70;77.90;;;27.88;51.88;98247.63;4962107;28;20616;-69
2023/08/16 09:15:35;;;;;;;4.80;4.50;;;27.70;76.70;;;27.58;52.73;98245.47;4946825;29;20458;-71
2023/08/16 09:18:12;;;;;;;5.27;4.77;;;27.70;76.50;;;27.63;53.43;98236.97;4936384;29;20847;-69
2023/08/16 09:20:42;;;;;;;5.20;4.70;;;27.50;77.30;;;28.12;51.93;98241.59;4949806;29;20835;-70
2023/08/16 09:23:14;;;;;;;5.13;4.73;;;27.80;76.50;;;28.13;51.18;98237.66;4950938;28;20453;-71
2023/08/16 09:25:44;;;;;;;5.10;4.70;;;28.00;75.60;;;28.63;50.19;98239.13;4951527;29;20537;-69
2023/08/16 09:28:12;;;;;;;4.97;4.50;;;28.20;75.20;;;28.98;48.00;98238.22;4961590;28;20590;-70
2023/08/16 09:30:40;;;;;;;4.97;4.63;;;28.50;73.50;;;29.34;48.08;98239.69;4947776;29;21156;-69
2023/08/16 09:33:08;;;;;;;4.07;3.80;;;28.90;73.50;;;29.15;46.81;98229.00;4941171;29;20811;-69
2023/08/16 09:35:45;;;;;;;4.13;3.77;;;28.90;71.20;;;29.29;47.31;98225.19;4932844;29;20468;-70
2023/08/16 09:38:15;;;;;;;5.00;4.60;;;29.00;71.50;;;29.58;46.34;98224.38;4933489;29;20489;-69
2023/08/16 09:40:50;;;;;;;4.63;4.23;;;29.30;70.80;;;29.68;45.87;98221.22;4933029;29;20457;-68
2023/08/16 09:43:17;;;;;;;4.60;4.30;;;29.50;69.60;;;29.59;46.06;98228.78;4943145;29;20450;-69
2023/08/16 09:45:48;;;;;;;3.90;3.60;;;29.40;69.60;;;29.63;44.84;98217.81;4938631;28;20521;-71
2023/08/16 09:48:15;;;;;;;4.27;3.87;;;29.60;68.20;;;30.23;44.03;98215.72;4932074;29;20554;-69
2023/08/16 09:50:44;;;;;;;3.40;3.20;;;29.90;68.10;;;30.06;44.78;98218.66;4938650;29;20533;-70
2023/08/16 09:53:13;;;;;;;4.20;3.80;;;29.80;67.50;;;30.11;43.62;98215.69;4950770;28;20486;-69
2023/08/16 09:55:43;;;;;;;3.87;3.57;;;29.90;66.60;;;30.34;42.62;98202.19;4934325;29;20493;-71
2023/08/16 09:58:13;;;;;;;3.90;3.60;;;30.00;65.80;;;30.58;42.83;98216.53;4933088;29;20850;-70
2023/08/16 10:00:40;;;;;;;4.83;4.43;;;30.30;65.40;;;30.00;43.55;98218.00;4931635;29;20490;-69
2023/08/16 10:03:09;;;;;;;4.20;3.90;;;30.30;64.60;;;30.36;42.40;98162.81;4947192;28;20494;-70
2023/08/16 10:05:37;;;;;;;5.03;4.10;;;30.30;64.80;;;30.97;42.07;98213.50;4939562;29;20454;-71
2023/08/16 10:08:06;;;;;;;3.60;3.30;;;30.60;64.60;;;31.18;41.24;98210.63;4933022;29;20975;-71
2023/08/16 10:10:34;;;;;;;4.07;3.77;;;30.80;64.00;;;30.80;42.42;98212.56;4940670;29;20454;-70